Time;durP1;ratioP1;P1;durP2;ratioP2;P2;SDS_P1;SDS_P2;PMS_P1;PMS_P2;Temp;Humidity;BMP_temperature;BMP_pressure;BME280_temperature;BME280_humidity;BME280_pressure;Samples;Min_cycle;Max_cycle;Signal;HPM_P1;HPM_P2
2023/12/18 00:00:34;;;;;;;3.00;2.80;;;;;;;20.35;48.02;99421.69;5031271;28;20259;-28
2023/12/18 00:03:01;;;;;;;3.30;3.10;;;;;;;20.34;48.02;99415.69;5032381;28;20206;-29
2023/12/18 00:05:28;;;;;;;3.10;2.90;;;;;;;20.32;48.15;99409.63;5031644;28;20581;-29
2023/12/18 00:07:55;;;;;;;2.93;2.73;;;;;;;20.34;47.86;99409.72;5026377;28;20218;-29
2023/12/18 00:10:21;;;;;;;3.50;3.20;;;;;;;20.33;47.90;99408.81;5022138;28;20238;-36
2023/12/18 00:12:48;;;;;;;3.30;3.10;;;;;;;20.33;48.10;99408.81;5017779;28;20664;-30
2023/12/18 00:15:14;;;;;;;3.60;3.30;;;;;;;20.34;47.82;99415.69;5021189;28;20248;-28
2023/12/18 00:17:41;;;;;;;3.00;2.77;;;;;;;20.34;47.80;99408.03;5029620;28;20213;-28
2023/12/18 00:20:09;;;;;;;2.90;2.70;;;;;;;20.35;47.73;99401.25;5018256;28;20269;-31
2023/12/18 00:22:35;;;;;;;3.23;3.03;;;;;;;20.34;48.00;99402.94;5020525;28;20394;-28
2023/12/18 00:25:02;;;;;;;3.20;2.97;;;;;;;20.34;47.96;99404.63;5024584;28;20210;-39
2023/12/18 00:27:29;;;;;;;3.43;3.20;;;;;;;20.34;47.85;99407.16;5024884;28;20221;-28
2023/12/18 00:29:55;;;;;;;3.27;3.07;;;;;;;20.34;47.94;99410.59;5030196;28;20206;-28
2023/12/18 00:32:22;;;;;;;2.87;2.67;;;;;;;20.34;47.95;99402.94;5030386;28;20213;-32
2023/12/18 00:34:48;;;;;;;2.93;2.73;;;;;;;20.35;47.73;99402.16;5033007;28;20229;-29
2023/12/18 00:37:15;;;;;;;3.20;2.93;;;;;;;20.34;47.82;99392.72;5035107;28;20607;-29
2023/12/18 00:39:42;;;;;;;3.20;3.00;;;;;;;20.34;48.04;99397.81;5030946;28;20237;-28
2023/12/18 00:42:08;;;;;;;2.90;2.70;;;;;;;20.33;47.87;99396.06;5029742;28;20224;-29
2023/12/18 00:44:35;;;;;;;3.20;3.00;;;;;;;20.35;47.62;99398.72;5034642;28;20198;-31
2023/12/18 00:47:02;;;;;;;3.10;2.90;;;;;;;20.36;47.80;99397.91;5034420;28;20229;-28
2023/12/18 00:49:32;;;;;;;3.17;2.97;;;;;;;20.36;47.93;99392.81;5027128;28;20198;-30
2023/12/18 00:51:59;;;;;;;3.50;3.20;;;;;;;20.36;47.79;99397.91;5031002;28;20206;-28
2023/12/18 00:54:26;;;;;;;3.10;2.90;;;;;;;20.36;47.57;99400.47;5026535;28;20259;-29
2023/12/18 00:56:53;;;;;;;3.10;2.90;;;;;;;20.36;47.85;99392.81;5033450;28;20661;-28
2023/12/18 00:59:19;;;;;;;2.83;2.63;;;;;;;20.35;47.81;99391.06;5029487;28;20244;-31
2023/12/18 01:01:46;;;;;;;2.93;2.73;;;;;;;20.36;47.72;99390.25;5031363;28;20205;-29
2023/12/18 01:04:12;;;;;;;3.30;3.10;;;;;;;20.35;47.82;99385.94;5027986;28;20194;-28
2023/12/18 01:06:39;;;;;;;3.23;2.83;;;;;;;20.36;47.64;99385.16;5023262;28;20230;-31
2023/12/18 01:09:07;;;;;;;2.90;2.70;;;;;;;20.37;47.63;99385.25;5033913;28;20202;-29
2023/12/18 01:11:34;;;;;;;3.10;2.90;;;;;;;20.36;47.62;99380.03;5034982;28;20259;-28
2023/12/18 01:14:01;;;;;;;3.20;3.00;;;;;;;20.35;47.68;99365.50;5030824;28;20199;-28
2023/12/18 01:16:27;;;;;;;2.83;2.63;;;;;;;20.36;47.64;99377.47;5023468;28;20249;-31
2023/12/18 01:18:54;;;;;;;3.10;2.90;;;;;;;20.38;47.66;99370.81;5022562;28;20205;-29
2023/12/18 01:21:21;;;;;;;3.10;2.90;;;;;;;20.37;47.60;99367.38;5034524;28;20221;-28
2023/12/18 01:23:48;;;;;;;3.23;3.00;;;;;;;20.38;47.61;99371.72;5033089;28;20213;-32
2023/12/18 01:26:14;;;;;;;2.80;2.60;;;;;;;20.39;47.56;99368.34;5030698;28;20316;-30
2023/12/18 01:28:42;;;;;;;3.53;3.23;;;;;;;20.40;47.55;99367.56;5033286;28;20205;-30
2023/12/18 01:31:09;;;;;;;3.00;2.80;;;;;;;20.41;47.81;99360.78;5024820;28;20237;-29
2023/12/18 01:33:35;;;;;;;3.03;2.83;;;;;;;20.41;47.50;99368.44;5024239;28;20198;-28
2023/12/18 01:36:02;;;;;;;2.70;2.50;;;;;;;20.42;47.70;99362.53;5012321;28;20248;-31
2023/12/18 01:38:29;;;;;;;2.90;2.70;;;;;;;20.37;47.53;99361.41;5031130;28;20200;-28
2023/12/18 01:40:55;;;;;;;2.67;2.47;;;;;;;20.36;47.53;99362.16;5017563;28;20288;-31
2023/12/18 01:43:23;;;;;;;3.00;2.80;;;;;;;20.34;47.56;99359.50;5025163;28;20287;-28
2023/12/18 01:45:59;;;;;;;3.00;2.80;;;;;;;20.34;47.81;99358.66;5021170;28;20226;-29
2023/12/18 01:48:26;;;;;;;3.03;2.83;;;;;;;20.33;47.39;99352.66;5027674;28;20217;-28
2023/12/18 01:50:53;;;;;;;3.13;2.93;;;;;;;20.33;47.64;99359.41;5025478;28;20229;-29
2023/12/18 01:53:24;;;;;;;3.00;2.80;;;;;;;20.33;47.26;99361.97;5032921;28;20642;-28
2023/12/18 01:55:50;;;;;;;2.77;2.57;;;;;;;20.31;47.40;99355.91;5033106;28;20226;-28
2023/12/18 01:58:17;;;;;;;2.90;2.70;;;;;;;20.31;47.31;99355.91;5033540;28;20201;-28
2023/12/18 02:00:43;;;;;;;3.30;3.00;;;;;;;20.28;47.38;99345.50;5013696;28;20198;-29
2023/12/18 02:03:10;;;;;;;2.63;2.43;;;;;;;20.32;47.44;99357.66;5032117;28;20197;-28
2023/12/18 02:05:37;;;;;;;2.97;2.77;;;;;;;20.27;47.74;99339.50;5031452;28;20288;-28
2023/12/18 02:08:05;;;;;;;3.00;2.80;;;;;;;20.31;47.48;99349.09;5004743;28;20217;-29
2023/12/18 02:10:31;;;;;;;2.80;2.60;;;;;;;20.30;47.48;99343.91;5033634;28;20271;-28
2023/12/18 02:12:58;;;;;;;2.90;2.70;;;;;;;20.31;47.47;99349.09;5032510;28;20232;-31
2023/12/18 02:15:24;;;;;;;3.20;3.00;;;;;;;20.31;47.60;99348.25;5030236;28;20205;-29
2023/12/18 02:17:51;;;;;;;2.90;2.70;;;;;;;20.31;47.65;99345.69;5027688;28;20280;-28
2023/12/18 02:20:18;;;;;;;2.70;2.50;;;;;;;20.31;47.49;99354.22;5025354;28;20209;-28
2023/12/18 02:22:47;;;;;;;3.00;2.80;;;;;;;20.32;47.71;99339.78;5024775;28;20263;-29
2023/12/18 02:25:15;;;;;;;2.80;2.60;;;;;;;20.32;47.71;99339.78;5029690;28;20213;-28
2023/12/18 02:27:42;;;;;;;3.20;3.00;;;;;;;20.29;47.83;99334.50;5031878;28;20291;-28
2023/12/18 02:30:14;;;;;;;3.10;2.90;;;;;;;20.31;47.58;99333.78;5002981;28;20259;-30
2023/12/18 02:32:41;;;;;;;3.20;3.00;;;;;;;20.31;47.50;99338.03;5029508;28;20198;-31
2023/12/18 02:35:07;;;;;;;3.00;2.80;;;;;;;20.32;47.79;99340.69;5025932;28;20318;-29
2023/12/18 02:37:34;;;;;;;3.07;2.87;;;;;;;20.34;47.65;99338.22;5033085;28;20645;-29
2023/12/18 02:40:01;;;;;;;2.80;2.60;;;;;;;20.33;47.54;99339.00;5031132;28;20205;-30
2023/12/18 02:42:28;;;;;;;2.93;2.73;;;;;;;20.32;47.58;99334.69;5032031;28;20205;-28
2023/12/18 02:44:56;;;;;;;2.77;2.57;;;;;;;20.33;47.51;99337.31;5032913;28;20676;-28
2023/12/18 02:47:22;;;;;;;2.80;2.60;;;;;;;20.33;47.61;99334.78;5024468;28;20672;-28
2023/12/18 02:49:49;;;;;;;2.80;2.60;;;;;;;20.33;47.73;99333.88;5031342;28;20746;-38
2023/12/18 02:52:16;;;;;;;3.00;2.80;;;;;;;20.33;47.70;99327.13;5021323;28;20727;-31
2023/12/18 02:54:42;;;;;;;3.13;2.93;;;;;;;20.33;47.60;99334.78;5028734;28;20633;-28
2023/12/18 02:57:09;;;;;;;2.77;2.57;;;;;;;20.33;47.53;99328.78;5032526;28;20224;-28
2023/12/18 02:59:36;;;;;;;2.90;2.70;;;;;;;20.32;47.49;99317.69;5021648;28;20199;-30
2023/12/18 03:02:02;;;;;;;2.87;2.67;;;;;;;20.33;47.69;99322.00;5031875;28;20656;-28
2023/12/18 03:04:29;;;;;;;3.10;2.90;;;;;;;20.34;47.50;99315.25;5021786;28;20214;-28
2023/12/18 03:06:55;;;;;;;2.87;2.67;;;;;;;20.33;47.58;99319.44;5028570;28;20222;-28
2023/12/18 03:09:22;;;;;;;3.20;3.00;;;;;;;20.33;47.56;99311.78;5026978;28;20256;-31
2023/12/18 03:11:48;;;;;;;3.10;2.90;;;;;;;20.34;47.75;99310.13;5032686;28;20204;-28
2023/12/18 03:14:15;;;;;;;3.10;2.90;;;;;;;20.33;47.63;99306.69;5032535;28;20204;-28
2023/12/18 03:16:42;;;;;;;3.07;2.80;;;;;;;20.34;47.63;99305.88;5028078;28;20228;-27
2023/12/18 03:19:08;;;;;;;2.70;2.50;;;;;;;20.34;47.71;99315.25;5031031;28;20205;-30
2023/12/18 03:21:35;;;;;;;3.10;2.90;;;;;;;20.34;47.54;99317.78;5028616;28;20205;-28
2023/12/18 03:24:02;;;;;;;2.77;2.57;;;;;;;20.35;47.59;99311.88;5030446;28;20198;-27
2023/12/18 03:26:28;;;;;;;3.10;2.90;;;;;;;20.35;47.54;99317.00;5032402;28;20213;-28
2023/12/18 03:28:55;;;;;;;3.00;2.80;;;;;;;20.34;47.85;99318.66;5029017;28;20656;-29
2023/12/18 03:31:21;;;;;;;2.90;2.70;;;;;;;20.35;47.56;99323.00;5032028;28;20281;-30
2023/12/18 03:33:48;;;;;;;2.90;2.70;;;;;;;20.33;47.38;99306.69;5027147;28;20197;-28
2023/12/18 03:36:15;;;;;;;2.83;2.63;;;;;;;20.33;47.45;99316.91;5031836;28;20585;-28
2023/12/18 03:38:41;;;;;;;3.00;2.80;;;;;;;20.34;47.62;99305.03;5031896;28;20193;-31
2023/12/18 03:41:08;;;;;;;2.80;2.60;;;;;;;20.31;47.62;99300.59;5022063;28;20240;-30
2023/12/18 03:43:35;;;;;;;2.93;2.73;;;;;;;20.33;47.57;99309.25;5029858;28;20205;-28
2023/12/18 03:46:01;;;;;;;2.73;2.53;;;;;;;20.35;47.45;99302.56;5026257;28;20282;-32
2023/12/18 03:48:28;;;;;;;2.80;2.60;;;;;;;20.33;47.61;99308.34;5030095;28;20560;-28
2023/12/18 03:50:55;;;;;;;3.00;2.80;;;;;;;20.35;47.44;99323.00;5025460;28;20205;-29
2023/12/18 03:53:21;;;;;;;2.80;2.60;;;;;;;20.34;47.33;99316.09;5022798;28;20198;-27
2023/12/18 03:55:48;;;;;;;3.00;2.80;;;;;;;20.35;47.44;99317.00;5024352;28;20775;-32
2023/12/18 03:58:14;;;;;;;2.83;2.63;;;;;;;20.35;47.64;99311.88;5025931;28;20193;-29
2023/12/18 04:00:41;;;;;;;2.73;2.53;;;;;;;20.34;47.47;99305.88;5030445;28;20255;-29
2023/12/18 04:03:08;;;;;;;3.03;2.83;;;;;;;20.35;47.51;99310.22;5031631;28;20212;-28
2023/12/18 04:05:34;;;;;;;3.10;2.90;;;;;;;20.36;47.34;99309.44;5030927;28;20213;-29
2023/12/18 04:08:01;;;;;;;2.90;2.70;;;;;;;20.36;47.20;99303.44;5035955;28;20225;-29
2023/12/18 04:10:28;;;;;;;2.97;2.77;;;;;;;20.37;47.36;99295.00;5035958;28;20280;-27
2023/12/18 04:12:55;;;;;;;2.83;2.63;;;;;;;20.36;47.41;99294.09;5033938;28;20209;-30
2023/12/18 04:15:21;;;;;;;3.03;2.83;;;;;;;20.37;47.40;99297.56;5030545;28;20202;-28
2023/12/18 04:17:48;;;;;;;2.90;2.70;;;;;;;20.36;47.35;99301.78;5034919;28;20255;-29
2023/12/18 04:20:16;;;;;;;3.00;2.80;;;;;;;20.35;47.52;99294.91;5023728;28;20205;-30
2023/12/18 04:22:42;;;;;;;2.80;2.60;;;;;;;20.35;47.35;99297.47;5024693;28;20247;-28
2023/12/18 04:25:09;;;;;;;3.03;2.83;;;;;;;20.36;47.35;99293.22;5030560;28;20201;-32
2023/12/18 04:27:36;;;;;;;2.80;2.60;;;;;;;20.26;47.69;99279.03;5030329;28;20658;-29
2023/12/18 04:30:02;;;;;;;3.00;2.80;;;;;;;20.35;47.63;99288.91;5033458;28;20595;-37
2023/12/18 04:32:29;;;;;;;3.00;2.80;;;;;;;20.34;47.47;99292.25;5027118;28;20626;-30
2023/12/18 04:34:56;;;;;;;3.00;2.80;;;;;;;20.35;47.80;99294.91;5027229;28;20198;-28
2023/12/18 04:37:22;;;;;;;3.20;3.00;;;;;;;20.36;47.42;99288.09;5035298;28;20217;-29
2023/12/18 04:39:49;;;;;;;2.93;2.73;;;;;;;20.35;47.49;99282.13;5035250;28;20236;-27
2023/12/18 04:42:16;;;;;;;2.60;2.40;;;;;;;20.36;47.35;99283.00;5035248;28;20280;-29
2023/12/18 04:44:42;;;;;;;3.03;2.83;;;;;;;20.36;47.45;99289.00;5034173;28;20230;-28
2023/12/18 04:47:09;;;;;;;3.20;3.00;;;;;;;20.36;47.50;99289.00;5027322;28;20225;-28
2023/12/18 04:49:35;;;;;;;2.90;2.70;;;;;;;20.36;47.48;99296.66;5033013;28;20201;-30
2023/12/18 04:52:03;;;;;;;2.70;2.50;;;;;;;20.36;47.48;99283.88;5033483;28;20308;-29
2023/12/18 04:54:29;;;;;;;3.00;2.80;;;;;;;20.26;47.50;99276.47;5035035;28;20600;-28
2023/12/18 04:56:56;;;;;;;2.80;2.60;;;;;;;20.34;47.52;99292.25;5034826;28;20225;-28
2023/12/18 04:59:22;;;;;;;2.90;2.70;;;;;;;20.35;47.46;99289.78;5034854;28;20222;-32
2023/12/18 05:01:49;;;;;;;2.90;2.70;;;;;;;20.36;47.23;99289.00;5033590;28;20267;-28
2023/12/18 05:04:15;;;;;;;2.83;2.63;;;;;;;20.36;47.49;99289.00;5024176;28;20247;-30
2023/12/18 05:06:42;;;;;;;2.90;2.70;;;;;;;20.37;47.38;99287.34;5024218;28;20241;-28
2023/12/18 05:09:09;;;;;;;2.90;2.70;;;;;;;20.35;47.41;99279.59;5027470;28;20765;-28
2023/12/18 05:11:36;;;;;;;3.10;2.90;;;;;;;20.34;47.33;99279.50;5026036;28;20600;-29
2023/12/18 05:14:03;;;;;;;2.90;2.70;;;;;;;20.35;47.45;99281.25;5031693;28;20553;-28
2023/12/18 05:16:29;;;;;;;2.97;2.77;;;;;;;20.35;47.43;99278.69;5033336;28;20683;-29
2023/12/18 05:18:56;;;;;;;3.00;2.80;;;;;;;20.33;47.48;99278.59;5034035;28;20193;-30
2023/12/18 05:21:23;;;;;;;3.07;2.87;;;;;;;20.31;47.20;99272.50;5026079;28;20206;-32
2023/12/18 05:23:51;;;;;;;2.90;2.70;;;;;;;20.30;47.39;99273.31;5021314;28;20260;-29
2023/12/18 05:26:17;;;;;;;2.53;2.40;;;;;;;20.32;47.47;99275.94;5034655;28;20221;-29
2023/12/18 05:28:44;;;;;;;2.70;2.50;;;;;;;20.31;47.33;99281.84;5031021;28;20469;-28
2023/12/18 05:31:11;;;;;;;3.30;3.10;;;;;;;20.27;47.21;99272.22;5023004;28;20297;-29
2023/12/18 05:33:37;;;;;;;2.97;2.77;;;;;;;20.32;47.24;99288.72;5020351;28;20262;-28
2023/12/18 05:36:04;;;;;;;2.97;2.73;;;;;;;20.30;47.38;99280.97;5031733;28;20252;-29
2023/12/18 05:38:31;;;;;;;3.00;2.80;;;;;;;20.31;47.37;99280.16;5029570;28;20684;-28
2023/12/18 05:40:58;;;;;;;2.90;2.70;;;;;;;20.31;47.37;99280.16;5029739;28;20206;-30
2023/12/18 05:43:24;;;;;;;2.60;2.50;;;;;;;20.32;47.28;99278.50;5032450;28;20251;-29
2023/12/18 05:45:51;;;;;;;2.87;2.67;;;;;;;20.31;47.23;99282.72;5028231;28;20221;-29
2023/12/18 05:48:18;;;;;;;2.97;2.77;;;;;;;20.30;47.38;99285.19;5028303;28;20221;-30
2023/12/18 05:50:44;;;;;;;3.90;3.60;;;;;;;20.33;46.61;99291.38;5026444;28;20293;-30
2023/12/18 05:53:11;;;;;;;5.97;5.30;;;;;;;20.34;43.40;99285.47;5031560;28;20241;-29
2023/12/18 05:55:38;;;;;;;7.57;6.87;;;;;;;20.28;41.79;99285.09;5027739;28;20193;-28
2023/12/18 05:58:04;;;;;;;7.70;7.00;;;;;;;20.29;40.57;99298.75;5028155;28;20198;-29
2023/12/18 06:00:31;;;;;;;9.30;8.50;;;;;;;20.27;39.44;99293.53;5022935;28;20232;-35
2023/12/18 06:02:57;;;;;;;8.67;7.87;;;;;;;20.25;38.77;99292.56;5027265;28;20202;-28
2023/12/18 06:05:24;;;;;;;9.07;8.17;;;;;;;20.24;38.19;99293.34;5030300;28;20205;-28
2023/12/18 06:07:51;;;;;;;9.23;8.43;;;;;;;20.21;37.59;99293.16;5033416;28;20652;-28
2023/12/18 06:10:17;;;;;;;10.00;9.10;;;;;;;20.17;37.26;99285.22;5030586;28;20221;-32
2023/12/18 06:12:44;;;;;;;9.53;8.63;;;;;;;20.15;38.16;99290.22;5023886;28;20208;-29
2023/12/18 06:15:11;;;;;;;9.37;8.57;;;;;;;20.17;39.32;99282.66;5031847;28;20208;-28
2023/12/18 06:17:37;;;;;;;8.67;7.87;;;;;;;20.17;40.27;99283.56;5027763;28;20214;-29
2023/12/18 06:20:05;;;;;;;8.13;7.43;;;;;;;20.17;40.95;99286.09;5032035;28;20206;-28
2023/12/18 06:22:32;;;;;;;8.93;7.97;;;;;;;20.16;41.80;99276.66;5030363;28;20206;-29
2023/12/18 06:24:58;;;;;;;8.83;8.03;;;;;;;20.16;42.32;99276.66;5032444;28;20198;-29
2023/12/18 06:27:25;;;;;;;7.67;6.97;;;;;;;20.16;42.64;99279.22;5024477;28;20217;-28
2023/12/18 06:29:52;;;;;;;7.27;6.67;;;;;;;20.16;43.06;99286.88;5029359;28;20252;-28
2023/12/18 06:32:18;;;;;;;7.00;6.33;;;;;;;20.18;43.44;99286.97;5026399;28;20310;-30
2023/12/18 06:34:45;;;;;;;7.17;6.57;;;;;;;20.18;43.71;99286.97;5027595;28;20263;-28
2023/12/18 06:37:12;;;;;;;7.23;6.53;;;;;;;20.19;43.52;99288.75;5029877;28;20221;-27
2023/12/18 06:39:38;;;;;;;7.37;6.77;;;;;;;20.22;41.72;99281.28;5029552;28;20253;-30
2023/12/18 06:42:05;;;;;;;7.37;6.77;;;;;;;20.18;40.73;99285.31;5028820;28;20259;-28
2023/12/18 06:44:32;;;;;;;8.03;7.33;;;;;;;20.18;41.63;99292.97;5031403;28;20198;-28
2023/12/18 06:46:58;;;;;;;7.63;6.87;;;;;;;20.19;42.19;99287.06;5025579;28;20249;-27
2023/12/18 06:49:25;;;;;;;7.10;6.50;;;;;;;20.18;42.16;99287.88;5028695;28;20777;-31
2023/12/18 06:51:52;;;;;;;7.47;6.77;;;;;;;20.20;42.80;99285.41;5029971;28;20288;-29
2023/12/18 06:54:18;;;;;;;6.53;5.93;;;;;;;20.19;43.08;99283.66;5028587;28;20570;-29
2023/12/18 06:56:45;;;;;;;6.57;5.97;;;;;;;20.18;43.41;99295.53;5026083;28;20221;-28
2023/12/18 06:59:12;;;;;;;7.60;6.20;;;;;;;20.17;43.62;99296.31;5031481;28;20237;-28
2023/12/18 07:01:38;;;;;;;8.23;6.03;;;;;;;20.19;43.67;99293.88;5021562;28;20202;-29
2023/12/18 07:04:06;;;;;;;6.63;5.60;;;;;;;20.20;43.72;99288.84;5028240;28;20202;-28
2023/12/18 07:06:34;;;;;;;6.03;5.43;;;;;;;20.22;43.93;99288.94;5027371;28;20641;-29
2023/12/18 07:09:00;;;;;;;6.03;5.53;;;;;;;20.23;44.36;99300.91;5032160;28;20222;-28
2023/12/18 07:11:27;;;;;;;9.23;8.33;;;;;;;20.23;40.68;99298.38;5032519;28;20233;-29
2023/12/18 07:13:54;;;;;;;10.53;8.67;;;;;;;20.21;39.92;99294.81;5030904;28;20407;-28
2023/12/18 07:16:21;;;;;;;10.53;8.97;;;;;;;20.18;39.23;99292.06;5024910;28;20309;-29
2023/12/18 07:18:48;;;;;;;9.87;8.80;;;;;;;20.19;40.19;99297.28;5023676;28;20656;-32
2023/12/18 07:21:14;;;;;;;10.07;9.07;;;;;;;20.20;40.59;99295.63;5024250;28;20297;-32
2023/12/18 07:23:42;;;;;;;9.03;8.13;;;;;;;20.15;41.02;99297.88;5028162;28;20209;-31
2023/12/18 07:26:12;;;;;;;10.33;8.83;;;;;;;20.14;41.90;99296.13;5023463;28;20292;-31
2023/12/18 07:28:45;;;;;;;9.13;8.17;;;;;;;20.14;42.02;99296.13;5027083;28;20221;-34
2023/12/18 07:31:12;;;;;;;8.47;7.50;;;;;;;20.14;41.54;99301.22;5025053;28;20232;-31
2023/12/18 07:33:38;;;;;;;9.50;7.70;;;;;;;20.12;42.28;99296.75;5027408;28;20285;-30
2023/12/18 07:36:05;;;;;;;9.23;8.17;;;;;;;20.14;42.52;99300.34;5028695;28;20225;-32
2023/12/18 07:38:32;;;;;;;8.43;6.80;;;;;;;20.14;42.78;99302.91;5026163;28;20679;-28
2023/12/18 07:40:59;;;;;;;7.80;7.00;;;;;;;20.15;42.89;99309.75;5027808;28;20651;-33
2023/12/18 07:43:25;;;;;;;7.47;6.67;;;;;;;20.15;43.36;99302.09;5028924;28;20225;-38
2023/12/18 07:45:52;;;;;;;7.87;6.90;;;;;;;20.16;43.35;99294.53;5028859;28;20232;-29
2023/12/18 07:48:21;;;;;;;8.77;6.87;;;;;;;20.15;43.81;99291.88;5021544;28;20222;-32
2023/12/18 07:50:48;;;;;;;6.90;6.20;;;;;;;20.16;43.94;99291.97;5029270;28;20247;-33
2023/12/18 07:53:15;;;;;;;7.27;6.57;;;;;;;19.95;44.00;99268.53;5028837;28;20636;-29
2023/12/18 07:55:41;;;;;;;6.67;6.03;;;;;;;20.19;44.03;99293.88;5026765;28;20632;-32
2023/12/18 07:58:08;;;;;;;6.77;6.10;;;;;;;20.19;44.02;99297.28;5021255;28;20205;-30
2023/12/18 08:00:35;;;;;;;6.83;6.10;;;;;;;20.20;44.16;99301.63;5024900;28;20205;-30
2023/12/18 08:03:04;;;;;;;6.77;5.73;;;;;;;20.21;44.62;99299.94;5027074;28;20209;-28
2023/12/18 08:05:30;;;;;;;6.67;5.97;;;;;;;20.11;44.41;99282.25;5027732;28;20649;-30
2023/12/18 08:07:57;;;;;;;8.87;5.60;;;;;;;20.24;44.34;99302.66;5028256;28;20261;-30
2023/12/18 08:10:24;;;;;;;6.07;5.47;;;;;;;20.22;44.59;99305.13;5028404;28;20408;-30
2023/12/18 08:12:50;;;;;;;7.27;6.07;;;;;;;20.24;44.59;99305.22;5029232;28;20251;-30
2023/12/18 08:15:17;;;;;;;5.63;5.13;;;;;;;20.14;44.58;99291.03;5028752;28;20585;-28
2023/12/18 08:17:44;;;;;;;5.90;5.30;;;;;;;20.23;44.62;99309.47;5021554;28;20210;-28
2023/12/18 08:20:11;;;;;;;5.80;5.17;;;;;;;20.24;44.52;99315.44;5026027;28;20213;-30
2023/12/18 08:22:38;;;;;;;5.40;4.90;;;;;;;20.24;44.65;99300.13;5027507;28;20751;-28
2023/12/18 08:25:06;;;;;;;6.00;5.50;;;;;;;20.24;44.64;99300.13;5027694;28;20259;-28
2023/12/18 08:27:34;;;;;;;5.53;4.83;;;;;;;20.25;44.77;99309.56;5022019;28;20688;-29
2023/12/18 08:30:05;;;;;;;6.27;5.63;;;;;;;20.26;44.06;99309.66;5025312;28;20276;-30
2023/12/18 08:32:32;;;;;;;6.63;5.37;;;;;;;20.25;44.24;99305.31;5028783;28;20194;-33
2023/12/18 08:35:00;;;;;;;5.43;4.80;;;;;;;20.28;44.55;99313.16;5027441;28;20888;-31
2023/12/18 08:37:27;;;;;;;7.00;5.27;;;;;;;20.28;44.59;99317.41;5026243;28;20272;-28
2023/12/18 08:39:55;;;;;;;5.20;4.70;;;;;;;20.28;44.72;99312.31;5021665;28;20206;-29
2023/12/18 08:42:22;;;;;;;4.87;4.37;;;;;;;20.27;44.78;99311.41;5025933;28;20293;-33
2023/12/18 08:44:49;;;;;;;5.47;4.97;;;;;;;20.27;44.84;99321.63;5027271;28;20216;-29
2023/12/18 08:47:16;;;;;;;4.87;4.40;;;;;;;20.29;44.74;99329.38;5023963;28;20222;-31
2023/12/18 08:49:42;;;;;;;5.63;5.13;;;;;;;20.25;44.87;99312.13;5022102;28;20218;-31
2023/12/18 08:52:09;;;;;;;4.50;4.10;;;;;;;20.28;44.99;99331.03;5029775;28;20236;-31
2023/12/18 08:54:35;;;;;;;4.97;4.53;;;;;;;20.28;44.76;99323.38;5030418;28;20201;-28
2023/12/18 08:57:02;;;;;;;4.87;4.47;;;;;;;20.29;45.07;99327.72;5031909;28;20229;-32
2023/12/18 08:59:29;;;;;;;4.37;4.07;;;;;;;20.27;45.04;99319.06;5029188;28;20296;-31
2023/12/18 09:01:55;;;;;;;5.33;4.83;;;;;;;20.27;44.94;99318.19;5029882;28;20254;-27
2023/12/18 09:04:22;;;;;;;4.83;4.43;;;;;;;20.28;45.07;99325.94;5029366;28;20261;-31
2023/12/18 09:06:49;;;;;;;5.00;4.60;;;;;;;20.29;45.14;99326.81;5031139;28;20221;-31
2023/12/18 09:09:15;;;;;;;4.80;4.40;;;;;;;20.30;45.34;99326.03;5031005;28;20233;-34
2023/12/18 09:11:42;;;;;;;4.50;4.10;;;;;;;20.28;45.15;99327.63;5029472;28;20231;-31
2023/12/18 09:14:09;;;;;;;4.60;4.10;;;;;;;20.27;45.11;99338.59;5029429;28;20237;-36
2023/12/18 09:16:36;;;;;;;4.57;4.13;;;;;;;20.26;45.23;99330.09;5029158;28;20307;-29
2023/12/18 09:19:04;;;;;;;4.37;3.97;;;;;;;20.26;45.27;99329.19;5029846;28;20691;-31
2023/12/18 09:21:31;;;;;;;4.50;4.10;;;;;;;20.26;45.44;99326.63;5029043;28;20206;-31
2023/12/18 09:23:57;;;;;;;4.33;4.00;;;;;;;20.26;45.05;99335.19;5029221;28;20224;-29
2023/12/18 09:26:24;;;;;;;4.43;4.03;;;;;;;20.26;45.42;99329.19;5029699;28;20237;-28
2023/12/18 09:28:50;;;;;;;4.50;4.10;;;;;;;20.26;45.33;99332.63;5027679;28;20233;-28
2023/12/18 09:31:17;;;;;;;4.80;4.30;;;;;;;20.27;45.40;99336.06;5026373;28;20297;-31
2023/12/18 09:33:44;;;;;;;4.90;4.37;;;;;;;20.26;45.49;99331.75;5024072;28;20220;-28
2023/12/18 09:36:12;;;;;;;3.93;3.63;;;;;;;20.26;45.33;99326.63;5027199;28;20222;-29
2023/12/18 09:38:39;;;;;;;4.00;3.70;;;;;;;20.27;45.44;99324.19;5030435;28;20205;-34
2023/12/18 09:41:07;;;;;;;4.60;4.20;;;;;;;20.27;45.61;99315.63;5026890;28;20251;-29
2023/12/18 09:43:34;;;;;;;4.70;3.97;;;;;;;20.26;45.38;99304.56;5028691;28;20693;-28
2023/12/18 09:46:02;;;;;;;4.30;3.90;;;;;;;20.22;45.31;99294.91;5020971;28;20236;-29
2023/12/18 09:48:28;;;;;;;4.13;3.77;;;;;;;20.27;45.38;99300.31;5026191;28;20294;-29
2023/12/18 09:50:55;;;;;;;4.23;3.93;;;;;;;20.28;45.36;99299.53;5021786;28;20228;-28
2023/12/18 09:53:22;;;;;;;4.30;3.93;;;;;;;20.25;45.82;99286.59;5028139;28;20561;-33
2023/12/18 09:55:51;;;;;;;4.13;3.73;;;;;;;20.27;45.29;99284.97;5006223;28;20233;-29
2023/12/18 09:58:18;;;;;;;4.17;3.87;;;;;;;20.29;45.58;99293.63;5004898;28;20672;-33
2023/12/18 10:00:46;;;;;;;4.37;3.97;;;;;;;20.28;45.50;99290.19;5028282;28;20259;-28
2023/12/18 10:03:16;;;;;;;4.03;3.40;;;;;;;20.28;45.63;99279.13;5026869;28;20684;-28
2023/12/18 10:05:43;;;;;;;4.57;4.17;;;;;;;20.27;45.09;99278.22;5025163;28;20281;-29
2023/12/18 10:08:10;;;;;;;4.00;3.70;;;;;;;20.29;45.57;99270.66;5028121;28;20623;-29
2023/12/18 10:10:36;;;;;;;3.70;3.40;;;;;;;20.29;45.48;99279.22;5023441;28;20217;-34
2023/12/18 10:13:06;;;;;;;4.07;3.67;;;;;;;20.29;45.47;99268.09;5026002;28;20316;-31
2023/12/18 10:15:34;;;;;;;4.63;4.00;;;;;;;20.29;45.47;99257.88;5023355;28;20210;-31
2023/12/18 10:18:02;;;;;;;3.73;3.43;;;;;;;20.26;45.75;99248.38;5024433;28;20213;-32
2023/12/18 10:20:28;;;;;;;4.00;3.70;;;;;;;20.30;45.51;99245.22;5026619;28;20205;-28
2023/12/18 10:22:55;;;;;;;3.63;3.37;;;;;;;20.31;45.42;99246.09;5021037;28;20209;-28
2023/12/18 10:25:22;;;;;;;3.50;3.20;;;;;;;20.29;45.66;99248.56;5022440;28;20205;-30
2023/12/18 10:27:49;;;;;;;4.13;3.83;;;;;;;20.31;45.74;99259.72;5029673;28;20259;-29
2023/12/18 10:30:16;;;;;;;3.70;3.40;;;;;;;20.31;45.60;99254.63;5029183;28;20217;-31
2023/12/18 10:32:46;;;;;;;3.60;3.30;;;;;;;20.31;45.64;99239.31;5021997;28;20215;-29
2023/12/18 10:35:13;;;;;;;3.80;3.50;;;;;;;20.32;45.57;99248.75;5023161;28;20214;-32
2023/12/18 10:37:39;;;;;;;3.70;3.40;;;;;;;20.31;45.80;99239.31;5010407;28;20290;-30
2023/12/18 10:40:07;;;;;;;4.07;3.77;;;;;;;20.31;45.59;99241.84;5009842;28;20269;-33
2023/12/18 10:42:37;;;;;;;3.60;3.30;;;;;;;20.32;45.74;99241.09;5025484;28;20256;-31
2023/12/18 10:45:08;;;;;;;3.67;3.37;;;;;;;20.32;45.74;99223.22;5026677;28;20205;-30
2023/12/18 10:47:34;;;;;;;3.47;3.17;;;;;;;20.31;45.73;99223.13;5025912;28;20312;-38
2023/12/18 10:50:03;;;;;;;3.70;3.40;;;;;;;20.29;45.81;99223.03;5029506;28;20226;-33
2023/12/18 10:52:31;;;;;;;3.53;3.23;;;;;;;20.27;45.79;99219.50;5024239;28;20212;-29
2023/12/18 10:54:59;;;;;;;3.50;3.20;;;;;;;20.28;45.61;99216.13;5030592;28;20284;-29
2023/12/18 10:57:26;;;;;;;3.50;3.10;;;;;;;20.24;45.67;99201.44;5025302;28;21022;-28
2023/12/18 10:59:54;;;;;;;3.67;3.37;;;;;;;20.29;45.67;99206.81;5022496;28;20303;-27
2023/12/18 11:02:20;;;;;;;3.30;3.10;;;;;;;20.28;45.60;99207.63;5006980;28;20236;-33
2023/12/18 11:04:47;;;;;;;3.87;3.57;;;;;;;20.28;45.87;99215.28;5019129;28;20305;-32
2023/12/18 11:08:03;;;;;;;3.60;3.30;;;;;;;20.27;45.70;99214.38;5028795;28;20279;-28
2023/12/18 11:10:30;;;;;;;4.17;3.77;;;;;;;20.27;45.77;99209.28;5019515;28;20277;-35
2023/12/18 11:13:09;;;;;;;3.50;3.20;;;;;;;20.26;45.77;99204.97;5016320;28;20201;-30
2023/12/18 11:16:09;;;;;;;3.60;3.30;;;;;;;20.28;45.68;99207.63;5024377;28;20213;-30
2023/12/18 11:18:54;;;;;;;3.80;3.50;;;;;;;20.28;45.87;99211.03;5018858;28;20252;-33
2023/12/18 11:21:22;;;;;;;3.40;3.10;;;;;;;20.28;45.78;99203.38;5024781;28;20760;-34
2023/12/18 11:23:52;;;;;;;3.90;3.53;;;;;;;20.24;45.91;99203.09;5028213;28;20205;-27
2023/12/18 11:26:21;;;;;;;3.40;3.20;;;;;;;20.24;45.93;99198.88;5020163;28;20269;-35
2023/12/18 11:28:50;;;;;;;3.53;3.23;;;;;;;20.28;45.84;99202.50;5021416;28;20715;-30
2023/12/18 11:31:20;;;;;;;3.70;3.40;;;;;;;20.28;45.88;99195.72;5024689;28;20210;-28
2023/12/18 11:34:00;;;;;;;3.40;3.10;;;;;;;20.19;45.71;99177.28;5023473;28;20360;-31